Howenstein, Ohio
Current Conditions -  °F | °C
As of 8:09 AM on Thursday 23 Oct 2014 (Local Time) from KPHD Reporting Station
Haze Haze  
Wind Chill: 44°   Ceiling: 1900
Heat Index: 46°   Visibility: 5mi
Dew Point: 43°   Wind: 5mph
Humidity: 89%   Direction: 300°WNW
Pressure: 30.2"   Gusts: NA
Location:  40.6874°N, 81.3851°W
Report Text: KPHD 231209Z AUTO 30004KT 5SM BR SCT009 OVC019 08/06 A3020 RMK AO2 T00780061
Loading
Personal Weather Stations






























Interactive Weather Map
Tropical Storm Tracking
New forecast layout! Learn more

10-Day Weather Forecast

Advertisements
Track Severe Weather on mobile